Informes METAR cercanos


LEVC - Manises, Valencia, ESPAÑA
Distance from station: NNE 72km
Actualización: 19/09/2018 07:00
Algunas nubes
Algunas nubes
 Viento del O
Viento: O 6 km/h
Temperatura: 20°C
Rocío: 18°C
Humedad: 88%
Barómetro: 1018 hPa
Clouds: Algunas nubes
Visibility: 10 km
Cloud details: Algunas nubes 762 m
2018/09/19 05:00 LEVC 190500Z 28003KT 9999 FEW025 20/18 Q1018 NOSIG
LEAL - El Altet, Alicante, ESPAÑA
Distance from station: S 70km
Actualización: 19/09/2018 07:00
Despejado
Despejado
 Viento del ONO
Viento: ONO 11 km/h
Temperatura: 22°C
Rocío: 19°C
Humedad: 83%
Barómetro: 1017 hPa
Resumen: Despejado
Visibility: Mas de 10 km
2018/09/19 05:00 LEAL 190500Z 29006KT 260V320 CAVOK 22/19 Q1017 NOSIG
 
LELC - San Javier, Murcia, ESPAÑA
Distance from station: SSO 188km
Actualización: 19/09/2018 07:00
Algunas nubes
Algunas nubes
 Viento del NO
Viento: NO 9 km/h
Temperatura: 22°C
Rocío: 21°C
Humedad: 94%
Barómetro: 1018 hPa
Clouds: Algunas nubes
Visibility: 10 km
Cloud details: Algunas nubes 610 m
2018/09/19 05:00 LELC 190500Z 31005KT 9999 FEW020 22/21 Q1018 NOSIG
LEAB - Los Llanos, Albacete, ESPAÑA
Distance from station: O 143km
Actualización: 19/09/2018 07:07
Niebla, Parcialmente nuboso
Niebla, Parcialmente nuboso
 Viento del SSO
Viento: SSO 6 km/h
Temperatura: 15°C
Rocío: 15°C
Humedad: 100%
Barómetro: 1022 hPa
Resumen: Niebla
Clouds: Parcialmente nuboso
Visibility: 1 km
Cloud details: Parcialmente nuboso 30 m
2018/09/19 05:07 LEAB 190507Z 21003KT 0700 R09/2000N R27/1500D FG SCT001 15/15 Q1022 BECMG 3000